Time;durP1;ratioP1;P1;durP2;ratioP2;P2;SDS_P1;SDS_P2;PMS_P1;PMS_P2;Temp;Humidity;BMP_temperature;BMP_pressure;BME280_temperature;BME280_humidity;BME280_pressure;Samples;Min_cycle;Max_cycle;Signal;HPM_P1;HPM_P2
2021/10/04 00:01:25;;;;;;;4.00;3.60;;;20.10;55.10;;;;;;4887541;29;20465;-78
2021/10/04 00:03:53;;;;;;;6.30;3.57;;;20.10;55.10;;;;;;4887942;29;20457;-78
2021/10/04 00:06:24;;;;;;;8.03;3.13;;;20.00;54.90;;;;;;4887614;29;20446;-78
2021/10/04 00:08:52;;;;;;;8.87;3.27;;;20.00;55.30;;;;;;4893828;28;20433;-78
2021/10/04 00:11:20;;;;;;;3.23;3.03;;;20.00;55.30;;;;;;4900424;28;20480;-77
2021/10/04 00:13:48;;;;;;;3.87;3.47;;;20.00;55.20;;;;;;4904142;29;20461;-78
2021/10/04 00:16:17;;;;;;;5.80;3.10;;;20.00;55.10;;;;;;4906360;29;20479;-78
2021/10/04 00:18:45;;;;;;;5.20;3.63;;;20.00;55.20;;;;;;4905483;29;20580;-77
2021/10/04 00:21:13;;;;;;;3.20;2.97;;;19.90;55.20;;;;;;4905340;28;20515;-77
2021/10/04 00:23:42;;;;;;;6.50;3.53;;;19.90;55.40;;;;;;4905308;29;20516;-78
2021/10/04 00:26:10;;;;;;;5.10;3.37;;;19.90;55.10;;;;;;4904865;29;20473;-78
2021/10/04 00:28:38;;;;;;;3.23;3.03;;;20.00;55.50;;;;;;4903538;29;20472;-78
2021/10/04 00:31:07;;;;;;;4.80;3.30;;;20.00;55.10;;;;;;4904983;29;20423;-77
2021/10/04 00:33:39;;;;;;;4.47;2.47;;;20.00;55.20;;;;;;4903082;28;20503;-77
2021/10/04 00:36:07;;;;;;;3.10;2.80;;;19.90;55.30;;;;;;4905483;28;20445;-78
2021/10/04 00:38:35;;;;;;;3.63;3.30;;;20.00;55.40;;;;;;4905283;29;20447;-77
2021/10/04 00:41:04;;;;;;;2.80;2.60;;;19.90;55.20;;;;;;4905110;29;20433;-78
2021/10/04 00:43:32;;;;;;;2.93;2.70;;;19.90;55.40;;;;;;4905516;29;20518;-79
2021/10/04 00:46:02;;;;;;;9.30;2.87;;;19.80;55.60;;;;;;4905553;29;20480;-78
2021/10/04 00:48:30;;;;;;;3.57;2.90;;;19.80;55.40;;;;;;4902914;29;20469;-78
2021/10/04 00:50:59;;;;;;;5.57;3.40;;;19.80;55.50;;;;;;4905600;29;20457;-78
2021/10/04 00:53:27;;;;;;;4.47;3.03;;;19.80;55.40;;;;;;4905465;29;20458;-78
2021/10/04 00:55:57;;;;;;;5.13;2.77;;;19.80;55.70;;;;;;4905331;29;20449;-78
2021/10/04 00:58:26;;;;;;;3.30;2.70;;;19.80;55.60;;;;;;4905315;29;20479;-78
2021/10/04 01:00:54;;;;;;;6.33;3.23;;;19.70;55.20;;;;;;4905113;28;20444;-78
2021/10/04 01:03:24;;;;;;;6.60;3.30;;;19.70;55.70;;;;;;4904086;29;20444;-79
2021/10/04 01:05:52;;;;;;;5.30;2.80;;;19.70;55.40;;;;;;4912708;28;20527;-79
2021/10/04 01:08:21;;;;;;;2.93;2.63;;;19.70;55.40;;;;;;4904733;29;20445;-78
2021/10/04 01:10:49;;;;;;;6.00;3.20;;;19.70;55.70;;;;;;4903990;28;20445;-78
2021/10/04 01:13:17;;;;;;;5.63;2.80;;;19.70;55.50;;;;;;4904941;28;20441;-79
2021/10/04 01:15:46;;;;;;;4.13;2.87;;;19.70;55.70;;;;;;4904491;29;20514;-79
2021/10/04 01:18:14;;;;;;;6.00;3.30;;;19.70;55.60;;;;;;4904264;29;20473;-78
2021/10/04 01:20:43;;;;;;;4.47;2.80;;;19.70;55.70;;;;;;4904785;29;20437;-78
2021/10/04 01:23:11;;;;;;;6.00;2.93;;;19.70;55.50;;;;;;4901489;29;20473;-79
2021/10/04 01:25:39;;;;;;;5.50;3.60;;;19.60;55.70;;;;;;4905966;29;20437;-78
2021/10/04 01:28:07;;;;;;;3.10;2.80;;;19.60;55.70;;;;;;4894625;29;20527;-78
2021/10/04 01:30:35;;;;;;;4.37;3.07;;;19.60;55.80;;;;;;4886468;29;20478;-79
2021/10/04 01:33:03;;;;;;;4.20;2.67;;;19.60;55.50;;;;;;4886512;29;20525;-78
2021/10/04 01:35:32;;;;;;;3.37;2.70;;;19.60;55.90;;;;;;4886319;29;20465;-78
2021/10/04 01:38:01;;;;;;;5.20;3.30;;;19.50;55.90;;;;;;4886545;28;20450;-80
2021/10/04 01:40:29;;;;;;;3.83;2.77;;;19.50;55.70;;;;;;4886240;29;20461;-78
2021/10/04 01:42:57;;;;;;;3.57;3.10;;;19.60;56.00;;;;;;4889901;29;20453;-78
2021/10/04 01:45:27;;;;;;;2.90;2.60;;;19.50;56.00;;;;;;4886437;29;20461;-78
2021/10/04 01:47:58;;;;;;;7.23;3.47;;;19.50;55.80;;;;;;4886269;29;20437;-78
2021/10/04 01:50:27;;;;;;;6.10;3.00;;;19.50;55.90;;;;;;4885511;29;20446;-78
2021/10/04 01:52:56;;;;;;;5.37;3.50;;;19.50;55.80;;;;;;4935715;28;20452;-78
2021/10/04 01:55:26;;;;;;;4.63;3.23;;;19.50;55.60;;;;;;4972550;28;20415;-78
2021/10/04 01:57:55;;;;;;;5.17;3.37;;;19.50;55.70;;;;;;5003625;28;20416;-78
2021/10/04 02:00:24;;;;;;;3.90;2.97;;;19.50;55.70;;;;;;5003470;28;20504;-79
2021/10/04 02:02:53;;;;;;;5.90;3.00;;;19.40;56.20;;;;;;5003857;28;20531;-78
2021/10/04 02:05:21;;;;;;;5.13;2.90;;;19.40;56.20;;;;;;5004007;28;20428;-78
2021/10/04 02:07:50;;;;;;;5.17;3.30;;;19.40;56.10;;;;;;5003390;28;20436;-79
2021/10/04 02:10:19;;;;;;;4.97;2.87;;;19.40;56.10;;;;;;5003245;28;20428;-79
2021/10/04 02:12:48;;;;;;;4.10;2.90;;;19.40;55.90;;;;;;5004271;28;20445;-79
2021/10/04 02:15:16;;;;;;;4.33;2.63;;;19.40;55.90;;;;;;4922659;28;20449;-79
2021/10/04 02:17:44;;;;;;;6.37;3.00;;;19.30;56.00;;;;;;4904616;28;20503;-79
2021/10/04 02:20:13;;;;;;;3.73;2.60;;;19.40;56.10;;;;;;4904286;29;20484;-78
2021/10/04 02:22:42;;;;;;;4.43;2.90;;;19.40;56.20;;;;;;4907261;29;20450;-81
2021/10/04 02:25:10;;;;;;;2.93;2.47;;;19.30;56.60;;;;;;4906557;29;20461;-78
2021/10/04 02:27:38;;;;;;;5.27;2.67;;;19.40;56.20;;;;;;4907249;29;20449;-78
2021/10/04 02:30:09;;;;;;;3.20;2.50;;;19.30;56.20;;;;;;4903322;29;20500;-78
2021/10/04 02:32:37;;;;;;;6.00;2.87;;;19.40;55.90;;;;;;4907487;28;20540;-79
2021/10/04 02:35:07;;;;;;;3.40;3.10;;;19.40;56.10;;;;;;4903447;28;20479;-79
2021/10/04 02:37:35;;;;;;;3.70;2.60;;;19.40;55.80;;;;;;4904510;29;20461;-78
2021/10/04 02:40:04;;;;;;;3.00;2.80;;;19.40;56.00;;;;;;4905338;29;20539;-78
2021/10/04 02:42:32;;;;;;;2.70;2.50;;;19.30;56.10;;;;;;4906396;28;20461;-78
2021/10/04 02:45:01;;;;;;;2.73;2.47;;;19.40;56.00;;;;;;4903102;29;20461;-83
2021/10/04 02:47:31;;;;;;;3.00;2.67;;;19.40;56.00;;;;;;4903034;29;20453;-83
2021/10/04 02:49:59;;;;;;;2.20;2.00;;;19.50;55.70;;;;;;4905892;29;20469;-83
2021/10/04 02:52:27;;;;;;;4.70;2.20;;;19.40;55.90;;;;;;4907188;29;20481;-84
2021/10/04 02:54:55;;;;;;;3.90;2.23;;;19.50;55.70;;;;;;4907431;29;20496;-83
2021/10/04 02:57:23;;;;;;;3.03;2.17;;;19.40;55.90;;;;;;4907596;29;20512;-83
2021/10/04 02:59:55;;;;;;;2.50;2.30;;;19.40;55.90;;;;;;4907124;29;20476;-83
2021/10/04 03:02:23;;;;;;;2.40;2.20;;;19.40;55.90;;;;;;4907502;29;20466;-83
2021/10/04 03:04:53;;;;;;;2.20;2.07;;;19.40;55.90;;;;;;4897288;28;20491;-82
2021/10/04 03:07:21;;;;;;;2.77;1.70;;;19.40;55.80;;;;;;4888279;29;20438;-83
2021/10/04 03:09:49;;;;;;;6.93;2.60;;;19.30;56.00;;;;;;4888092;29;20434;-83
2021/10/04 03:12:17;;;;;;;3.80;2.30;;;19.30;56.00;;;;;;4888205;29;20465;-83
2021/10/04 03:14:45;;;;;;;5.40;2.73;;;19.30;55.90;;;;;;4888298;28;20505;-83
2021/10/04 03:17:15;;;;;;;2.30;2.10;;;19.30;56.00;;;;;;4888339;28;20524;-83
2021/10/04 03:19:43;;;;;;;5.07;2.70;;;19.30;56.10;;;;;;4892782;29;20473;-83
2021/10/04 03:22:15;;;;;;;5.80;2.67;;;19.30;55.70;;;;;;4888189;29;20469;-83
2021/10/04 03:24:43;;;;;;;6.80;2.67;;;19.30;55.70;;;;;;4888423;29;20474;-83
2021/10/04 03:27:11;;;;;;;2.93;2.30;;;19.30;55.90;;;;;;4888305;28;20462;-83
2021/10/04 03:29:43;;;;;;;3.23;2.50;;;19.30;56.00;;;;;;4888196;29;20454;-83
2021/10/04 03:32:11;;;;;;;4.37;2.40;;;19.20;56.00;;;;;;4887840;28;20456;-83
2021/10/04 03:34:39;;;;;;;6.53;3.50;;;19.10;56.20;;;;;;4890423;29;20467;-82
2021/10/04 03:37:07;;;;;;;3.83;2.87;;;19.10;56.20;;;;;;4887956;29;20454;-83
2021/10/04 03:39:37;;;;;;;4.37;3.30;;;19.20;56.20;;;;;;4887988;29;20477;-83
2021/10/04 03:42:05;;;;;;;2.53;2.37;;;19.20;56.10;;;;;;4887858;29;20450;-83
2021/10/04 03:44:34;;;;;;;4.63;2.90;;;19.20;56.00;;;;;;4888279;28;20461;-82
2021/10/04 03:47:02;;;;;;;3.70;2.70;;;19.20;56.20;;;;;;4887480;29;20540;-83
2021/10/04 03:49:33;;;;;;;6.80;3.20;;;19.10;56.00;;;;;;4888301;29;20446;-83
2021/10/04 03:52:02;;;;;;;4.80;3.10;;;19.10;56.20;;;;;;4887911;29;20438;-83
2021/10/04 03:54:30;;;;;;;4.27;3.50;;;19.10;56.00;;;;;;4901832;29;20449;-83
2021/10/04 03:57:01;;;;;;;7.20;3.30;;;19.10;56.00;;;;;;4906649;28;20483;-83
2021/10/04 03:59:33;;;;;;;8.10;3.57;;;19.20;56.00;;;;;;4906711;29;20464;-84
2021/10/04 04:02:01;;;;;;;4.57;3.70;;;19.20;56.30;;;;;;4904771;28;20461;-84
2021/10/04 04:04:29;;;;;;;3.70;3.40;;;19.10;56.20;;;;;;4905946;29;20452;-84
2021/10/04 04:06:57;;;;;;;4.20;3.03;;;19.10;56.20;;;;;;4906070;29;20456;-83
2021/10/04 04:09:26;;;;;;;7.43;3.87;;;19.10;56.20;;;;;;4906359;28;20453;-84
2021/10/04 04:11:54;;;;;;;6.40;3.60;;;19.20;55.90;;;;;;4906201;28;20460;-83
2021/10/04 04:14:23;;;;;;;4.80;3.80;;;19.10;56.20;;;;;;4906591;29;20441;-83
2021/10/04 04:16:51;;;;;;;5.07;3.73;;;19.10;56.20;;;;;;4906046;29;20552;-83
2021/10/04 04:19:19;;;;;;;6.20;3.80;;;19.10;56.40;;;;;;4906201;29;20442;-84
2021/10/04 04:21:47;;;;;;;3.37;3.00;;;19.10;56.30;;;;;;4904982;29;20515;-84
2021/10/04 04:24:18;;;;;;;11.60;4.00;;;19.10;56.50;;;;;;4902166;28;20449;-83
2021/10/04 04:26:46;;;;;;;8.87;3.90;;;19.10;56.20;;;;;;4906022;29;20519;-84
2021/10/04 04:29:14;;;;;;;5.93;3.93;;;19.10;56.10;;;;;;4906021;29;20453;-83
2021/10/04 04:31:44;;;;;;;6.97;3.70;;;19.10;56.30;;;;;;4905912;29;20441;-84
2021/10/04 04:34:12;;;;;;;6.30;3.97;;;19.10;56.30;;;;;;4905789;29;20441;-84
2021/10/04 04:36:40;;;;;;;7.50;4.60;;;19.10;56.20;;;;;;4905856;29;20515;-84
2021/10/04 04:39:08;;;;;;;6.87;3.80;;;19.10;56.00;;;;;;4904282;29;20539;-83
2021/10/04 04:41:36;;;;;;;6.37;3.90;;;19.00;56.10;;;;;;4905311;29;20505;-84
2021/10/04 04:44:05;;;;;;;4.43;4.03;;;19.00;56.30;;;;;;4905257;29;20441;-84
2021/10/04 04:46:33;;;;;;;6.40;4.10;;;19.00;56.20;;;;;;4905177;29;20465;-84
2021/10/04 04:49:05;;;;;;;5.67;3.83;;;19.00;56.50;;;;;;4905876;28;20468;-83
2021/10/04 04:51:34;;;;;;;6.07;4.03;;;19.00;56.40;;;;;;4905790;29;20449;-84
2021/10/04 04:54:02;;;;;;;4.23;3.40;;;19.00;56.50;;;;;;4905801;29;20449;-83
2021/10/04 04:56:30;;;;;;;4.47;3.70;;;18.90;56.40;;;;;;4901662;29;20450;-83
2021/10/04 04:58:58;;;;;;;6.93;4.07;;;19.00;56.30;;;;;;4905154;29;20456;-83
2021/10/04 05:01:27;;;;;;;5.20;3.80;;;19.00;56.20;;;;;;4905507;29;20512;-83
2021/10/04 05:03:55;;;;;;;10.60;3.70;;;19.00;56.30;;;;;;4905890;28;20453;-84
2021/10/04 05:06:24;;;;;;;5.90;3.60;;;19.00;56.20;;;;;;4905496;29;20457;-84
2021/10/04 05:08:53;;;;;;;4.37;3.13;;;18.90;56.40;;;;;;4905643;29;20441;-84
2021/10/04 05:11:21;;;;;;;4.83;3.50;;;18.90;56.60;;;;;;4905339;29;20429;-83
2021/10/04 05:13:49;;;;;;;6.17;4.00;;;18.90;56.40;;;;;;4906099;29;20487;-82
2021/10/04 05:16:18;;;;;;;4.70;3.50;;;18.90;56.40;;;;;;4905713;29;20463;-82
2021/10/04 05:18:47;;;;;;;3.80;3.00;;;18.90;56.20;;;;;;4905773;29;20437;-82
2021/10/04 05:21:15;;;;;;;3.63;3.23;;;18.90;56.60;;;;;;4905163;29;20473;-84
2021/10/04 05:23:44;;;;;;;10.30;3.30;;;18.90;56.50;;;;;;4905685;29;20449;-82
2021/10/04 05:26:14;;;;;;;6.77;3.80;;;19.00;56.30;;;;;;4905774;28;20453;-85
2021/10/04 05:28:42;;;;;;;5.53;3.30;;;19.00;56.20;;;;;;4903771;29;20488;-84
2021/10/04 05:31:10;;;;;;;6.10;3.33;;;19.00;56.40;;;;;;4904728;28;20456;-83
2021/10/04 05:33:38;;;;;;;5.00;3.47;;;19.00;56.40;;;;;;4905061;28;20449;-83
2021/10/04 05:36:06;;;;;;;5.57;3.67;;;19.00;56.40;;;;;;4905469;28;20453;-83
2021/10/04 05:38:37;;;;;;;3.70;3.30;;;19.00;56.20;;;;;;4905016;29;20536;-83
2021/10/04 05:41:09;;;;;;;6.33;3.33;;;19.00;56.30;;;;;;4905113;29;20494;-83
2021/10/04 05:43:37;;;;;;;6.17;3.27;;;19.00;56.00;;;;;;4902920;29;20556;-83
2021/10/04 05:46:05;;;;;;;4.70;2.87;;;19.00;56.40;;;;;;4886760;29;20446;-83
2021/10/04 05:48:35;;;;;;;5.23;3.00;;;19.00;56.40;;;;;;4886460;29;20485;-83
2021/10/04 05:51:03;;;;;;;6.30;3.73;;;19.10;56.30;;;;;;4886243;28;20540;-84
2021/10/04 05:53:31;;;;;;;6.73;3.40;;;19.10;56.30;;;;;;4886022;29;20442;-82
2021/10/04 05:55:59;;;;;;;4.93;3.03;;;19.10;56.00;;;;;;4886478;29;20444;-85
2021/10/04 05:58:30;;;;;;;7.27;2.97;;;19.10;56.40;;;;;;4889598;29;20454;-82
2021/10/04 06:00:58;;;;;;;5.67;3.57;;;19.00;56.20;;;;;;4901371;29;20469;-83
2021/10/04 06:03:26;;;;;;;4.77;2.87;;;19.00;56.40;;;;;;4907895;29;20437;-82
2021/10/04 06:05:54;;;;;;;2.80;2.60;;;19.00;56.40;;;;;;4908211;28;20445;-82
2021/10/04 06:08:22;;;;;;;9.87;3.13;;;19.10;56.50;;;;;;4907923;29;20495;-82
2021/10/04 06:10:50;;;;;;;6.83;3.00;;;19.10;56.40;;;;;;4908138;28;20449;-83
2021/10/04 06:13:18;;;;;;;4.60;3.20;;;19.10;56.20;;;;;;4908229;29;20480;-83
2021/10/04 06:15:48;;;;;;;4.80;3.10;;;19.10;56.30;;;;;;4908109;29;20527;-83
2021/10/04 06:18:16;;;;;;;4.13;3.07;;;19.10;56.30;;;;;;4908477;29;20485;-83
2021/10/04 06:20:44;;;;;;;4.57;2.87;;;19.10;55.90;;;;;;4907434;29;20433;-82
2021/10/04 06:23:12;;;;;;;2.70;2.40;;;19.20;55.90;;;;;;4907892;28;20484;-83
2021/10/04 06:25:40;;;;;;;9.00;3.50;;;19.10;56.30;;;;;;4907750;29;20507;-82
2021/10/04 06:28:08;;;;;;;3.83;2.90;;;19.10;56.20;;;;;;4907967;29;20499;-82
2021/10/04 06:30:36;;;;;;;4.50;3.00;;;19.20;56.10;;;;;;4906187;29;20511;-82
2021/10/04 06:33:07;;;;;;;6.10;2.93;;;19.10;56.30;;;;;;4890944;29;20494;-82
2021/10/04 06:35:35;;;;;;;3.97;2.50;;;19.20;56.30;;;;;;4888840;29;20473;-82
2021/10/04 06:38:03;;;;;;;5.60;3.27;;;19.20;56.20;;;;;;4888799;29;20450;-82
2021/10/04 06:40:32;;;;;;;3.27;2.70;;;19.20;56.40;;;;;;4888288;29;20536;-83
2021/10/04 06:42:59;;;;;;;4.50;2.67;;;19.20;56.40;;;;;;4887936;29;20561;-82
2021/10/04 06:45:30;;;;;;;6.60;2.67;;;19.10;56.70;;;;;;4888679;29;20473;-83
2021/10/04 06:47:59;;;;;;;3.97;2.60;;;19.20;56.30;;;;;;4892338;28;20449;-83
2021/10/04 06:50:29;;;;;;;4.97;3.17;;;19.10;56.40;;;;;;4888794;29;20454;-82
2021/10/04 06:52:57;;;;;;;3.70;2.70;;;19.20;56.40;;;;;;4888915;29;20461;-81
2021/10/04 06:55:25;;;;;;;4.10;2.60;;;19.20;56.50;;;;;;4888684;29;20469;-82
2021/10/04 06:57:53;;;;;;;5.63;2.40;;;19.30;56.50;;;;;;4888882;29;20525;-82
2021/10/04 07:00:21;;;;;;;2.73;2.50;;;19.30;56.40;;;;;;4888613;29;20469;-84
2021/10/04 07:02:49;;;;;;;9.20;2.90;;;19.30;56.20;;;;;;4888364;29;20496;-81
2021/10/04 07:05:18;;;;;;;5.17;2.43;;;19.30;56.00;;;;;;4891645;29;20453;-82
2021/10/04 07:07:48;;;;;;;3.53;2.13;;;19.30;56.10;;;;;;4889936;29;20513;-82
2021/10/04 07:10:16;;;;;;;6.07;2.57;;;19.30;56.50;;;;;;4887748;29;20466;-82
2021/10/04 07:12:44;;;;;;;5.77;2.63;;;19.30;56.50;;;;;;4888196;29;20469;-80
2021/10/04 07:15:12;;;;;;;4.47;2.60;;;19.30;56.50;;;;;;4887211;29;20438;-81
2021/10/04 07:17:40;;;;;;;5.33;2.90;;;19.40;56.60;;;;;;4887635;28;20469;-81
2021/10/04 07:20:09;;;;;;;5.77;2.60;;;19.40;56.50;;;;;;4888131;29;20521;-81
2021/10/04 07:22:37;;;;;;;2.90;2.70;;;19.40;56.10;;;;;;4887550;29;20485;-83
2021/10/04 07:25:07;;;;;;;5.63;2.37;;;19.40;56.60;;;;;;4888060;29;20490;-81
2021/10/04 07:27:35;;;;;;;5.60;2.57;;;19.40;56.60;;;;;;4887976;28;20450;-80
2021/10/04 07:30:04;;;;;;;2.97;2.37;;;19.40;56.50;;;;;;4892374;29;20465;-83
2021/10/04 07:32:32;;;;;;;5.27;2.73;;;19.40;56.30;;;;;;4906320;29;20453;-81
2021/10/04 07:35:00;;;;;;;4.17;2.20;;;19.40;56.60;;;;;;4906548;29;20500;-84
2021/10/04 07:37:29;;;;;;;3.73;2.20;;;19.30;56.50;;;;;;4902011;29;20456;-83
2021/10/04 07:39:58;;;;;;;5.97;2.83;;;19.40;56.50;;;;;;4906511;29;20441;-81
2021/10/04 07:42:27;;;;;;;8.60;2.70;;;19.50;56.50;;;;;;4905925;29;20523;-82
2021/10/04 07:44:55;;;;;;;4.03;2.63;;;19.40;56.60;;;;;;4906444;28;20485;-82
2021/10/04 07:47:23;;;;;;;5.40;2.40;;;19.50;56.60;;;;;;4905776;29;20472;-82
2021/10/04 07:49:51;;;;;;;3.07;2.40;;;19.50;56.60;;;;;;4906340;29;20515;-82
2021/10/04 07:52:21;;;;;;;5.40;2.67;;;19.50;56.00;;;;;;4906606;29;20542;-82
2021/10/04 07:54:49;;;;;;;7.00;2.03;;;19.50;56.40;;;;;;4902465;29;20452;-82
2021/10/04 07:57:17;;;;;;;2.97;2.17;;;19.50;56.80;;;;;;4888186;29;20508;-81
2021/10/04 07:59:46;;;;;;;5.10;2.60;;;19.50;56.80;;;;;;4906355;29;20441;-81
2021/10/04 08:02:15;;;;;;;3.67;2.10;;;19.60;56.40;;;;;;4906302;29;20516;-82
2021/10/04 08:04:44;;;;;;;6.33;2.27;;;19.60;56.40;;;;;;4906243;28;20481;-81
2021/10/04 08:07:12;;;;;;;5.27;2.27;;;19.60;56.70;;;;;;4906148;29;20506;-81
2021/10/04 08:09:40;;;;;;;5.80;2.17;;;19.70;56.30;;;;;;4905925;29;20438;-81
2021/10/04 08:12:08;;;;;;;4.00;2.03;;;19.70;56.10;;;;;;4904192;29;20449;-81
2021/10/04 08:14:37;;;;;;;6.13;2.40;;;19.70;56.30;;;;;;4906032;29;20445;-82
2021/10/04 08:17:06;;;;;;;3.70;2.20;;;19.80;55.90;;;;;;4906135;29;20434;-81
2021/10/04 08:19:34;;;;;;;2.90;2.20;;;19.70;56.00;;;;;;4905111;28;20445;-81
2021/10/04 08:22:02;;;;;;;3.63;2.30;;;19.80;56.50;;;;;;4905922;29;20575;-81
2021/10/04 08:24:30;;;;;;;6.00;2.50;;;19.90;56.40;;;;;;4905789;29;20539;-82
2021/10/04 08:26:58;;;;;;;6.03;2.60;;;20.00;55.80;;;;;;4905626;28;20481;-82
2021/10/04 08:29:26;;;;;;;2.20;2.00;;;20.10;56.10;;;;;;4905703;29;20503;-82
2021/10/04 08:31:54;;;;;;;4.70;2.13;;;20.10;56.00;;;;;;4897144;29;20428;-82
2021/10/04 08:34:24;;;;;;;6.73;2.30;;;20.20;56.00;;;;;;4886829;29;20458;-82
2021/10/04 08:36:52;;;;;;;7.23;2.30;;;20.20;55.60;;;;;;4907167;29;20441;-82
2021/10/04 08:39:20;;;;;;;2.77;1.80;;;20.20;55.50;;;;;;4902741;29;20476;-82
2021/10/04 08:41:52;;;;;;;3.53;1.70;;;20.20;55.50;;;;;;4905503;29;20476;-82
2021/10/04 08:44:20;;;;;;;1.73;1.63;;;20.10;55.70;;;;;;4905264;29;20419;-82
2021/10/04 08:46:50;;;;;;;3.20;2.13;;;20.10;55.50;;;;;;4903807;29;20492;-82
2021/10/04 08:49:19;;;;;;;4.87;2.10;;;20.00;55.50;;;;;;4905067;29;20473;-82
2021/10/04 08:51:49;;;;;;;3.43;1.90;;;20.10;56.20;;;;;;4905264;28;20507;-82
2021/10/04 08:54:24;;;;;;;5.30;1.87;;;20.10;55.80;;;;;;4905503;29;20461;-82
2021/10/04 08:56:53;;;;;;;4.50;1.80;;;20.20;55.50;;;;;;4905030;29;20437;-82
2021/10/04 08:59:21;;;;;;;4.00;2.10;;;20.10;55.70;;;;;;4905249;29;20433;-82
2021/10/04 09:01:49;;;;;;;3.40;2.00;;;20.10;56.20;;;;;;4904878;29;20449;-82
2021/10/04 09:04:19;;;;;;;3.07;1.80;;;20.20;55.70;;;;;;4903506;29;20462;-82
2021/10/04 09:06:49;;;;;;;5.33;2.00;;;20.30;56.00;;;;;;4902587;29;20404;-81
2021/10/04 09:09:17;;;;;;;5.63;2.00;;;20.30;55.70;;;;;;4904777;29;20452;-81
2021/10/04 09:11:46;;;;;;;3.90;2.17;;;20.30;56.30;;;;;;4904515;29;20456;-81
2021/10/04 09:14:15;;;;;;;5.43;1.80;;;20.20;55.60;;;;;;4904846;29;20434;-81
2021/10/04 09:16:57;;;;;;;2.93;1.70;;;20.20;55.50;;;;;;4904770;29;20434;-81
2021/10/04 09:19:26;;;;;;;3.50;2.00;;;20.20;55.80;;;;;;4902222;28;20499;-81
2021/10/04 09:22:12;;;;;;;4.23;2.20;;;20.20;55.80;;;;;;4903827;29;20424;-81
2021/10/04 09:24:42;;;;;;;3.30;1.80;;;20.20;55.90;;;;;;4904175;29;20531;-81
2021/10/04 09:27:28;;;;;;;2.87;1.70;;;20.30;55.70;;;;;;4904796;29;20495;-81
2021/10/04 09:29:56;;;;;;;2.80;2.03;;;20.40;55.50;;;;;;4903306;29;20472;-81
2021/10/04 09:32:25;;;;;;;7.13;2.10;;;20.40;56.00;;;;;;4906657;29;20469;-81
2021/10/04 09:35:15;;;;;;;3.20;1.50;;;20.40;55.70;;;;;;4907666;29;20507;-81
2021/10/04 09:37:45;;;;;;;5.80;1.60;;;20.50;55.60;;;;;;4907537;28;20511;-81
2021/10/04 09:40:30;;;;;;;3.30;1.70;;;20.50;55.60;;;;;;4907483;29;20540;-81
2021/10/04 09:42:58;;;;;;;2.97;1.90;;;20.60;55.70;;;;;;4906838;29;20500;-81
2021/10/04 09:45:26;;;;;;;4.50;1.77;;;20.60;55.80;;;;;;4905248;28;20456;-81
2021/10/04 09:47:55;;;;;;;2.70;1.70;;;20.70;55.60;;;;;;4908162;29;20465;-81
2021/10/04 09:50:27;;;;;;;4.70;1.80;;;20.80;55.20;;;;;;4907436;28;20441;-81
2021/10/04 09:52:57;;;;;;;4.07;2.00;;;20.90;55.60;;;;;;4909275;29;20533;-81
2021/10/04 09:55:28;;;;;;;6.10;1.60;;;20.90;55.00;;;;;;4910693;29;20434;-81
2021/10/04 09:58:15;;;;;;;3.90;1.90;;;21.00;55.20;;;;;;4907751;28;20542;-81
2021/10/04 10:00:49;;;;;;;3.03;1.60;;;21.10;55.00;;;;;;4907662;29;20449;-83
2021/10/04 10:03:19;;;;;;;2.90;1.50;;;21.10;54.70;;;;;;4907993;29;20486;-82
2021/10/04 10:05:50;;;;;;;4.90;2.00;;;21.20;55.00;;;;;;4907798;29;20518;-83
2021/10/04 10:08:21;;;;;;;2.00;1.80;;;21.30;54.40;;;;;;4906960;28;20456;-84
2021/10/04 10:10:51;;;;;;;6.60;1.63;;;21.30;54.80;;;;;;4907999;29;20514;-83
2021/10/04 10:13:21;;;;;;;4.63;1.93;;;21.40;54.60;;;;;;4907808;29;20436;-81
2021/10/04 10:15:50;;;;;;;2.30;1.77;;;21.40;54.40;;;;;;4917256;29;20437;-80
2021/10/04 10:22:24;;;;;;;3.77;1.83;;;21.50;54.30;;;;;;4911018;29;20541;-83
2021/10/04 10:25:15;;;;;;;3.40;1.60;;;21.50;53.80;;;;;;4918814;29;20450;-82
2021/10/04 10:27:52;;;;;;;4.37;1.70;;;21.60;53.80;;;;;;4917829;29;20497;-82
2021/10/04 10:30:23;;;;;;;4.37;1.63;;;21.60;54.30;;;;;;4926837;29;20452;-82
2021/10/04 10:32:51;;;;;;;3.50;1.70;;;21.70;53.80;;;;;;4907064;28;20452;-82
2021/10/04 10:35:36;;;;;;;8.27;1.70;;;21.60;53.80;;;;;;4904432;28;20468;-81
2021/10/04 10:38:05;;;;;;;2.60;1.60;;;21.70;53.50;;;;;;4884873;29;20466;-80
2021/10/04 10:40:35;;;;;;;1.50;1.33;;;21.90;54.20;;;;;;4899629;29;20419;-80
2021/10/04 10:43:04;;;;;;;2.50;1.70;;;22.10;53.60;;;;;;4910772;28;20439;-82
2021/10/04 10:45:39;;;;;;;3.50;1.43;;;22.30;53.20;;;;;;4934403;28;20491;-82
2021/10/04 10:48:08;;;;;;;3.13;1.60;;;22.70;53.50;;;;;;4939412;28;20430;-82
2021/10/04 10:50:40;;;;;;;1.97;1.20;;;23.00;52.20;;;;;;4945877;28;20419;-82
2021/10/04 10:53:17;;;;;;;5.47;1.47;;;23.30;52.60;;;;;;4919996;28;20549;-81
2021/10/04 10:55:48;;;;;;;5.30;1.57;;;23.50;51.30;;;;;;4906836;28;20457;-82
2021/10/04 10:58:16;;;;;;;3.63;1.23;;;23.90;51.40;;;;;;4921947;28;20430;-81
2021/10/04 11:00:45;;;;;;;2.30;1.60;;;24.20;51.40;;;;;;4910003;28;20561;-83
2021/10/04 11:03:14;;;;;;;4.90;2.23;;;24.40;50.50;;;;;;4915293;28;20442;-82
2021/10/04 11:06:05;;;;;;;3.20;1.40;;;25.20;50.30;;;;;;4916133;28;20440;-82
2021/10/04 11:09:01;;;;;;;1.63;1.20;;;26.40;48.10;;;;;;4918086;28;20460;-83
2021/10/04 11:11:32;;;;;;;8.43;1.60;;;27.80;46.30;;;;;;4913125;28;20435;-84
2021/10/04 11:14:07;;;;;;;4.07;1.40;;;28.70;43.70;;;;;;4897070;28;20466;-83
2021/10/04 11:16:55;;;;;;;4.20;1.37;;;29.40;42.00;;;;;;4935206;28;20445;-83
2021/10/04 11:19:29;;;;;;;4.67;1.20;;;29.90;41.50;;;;;;4903731;28;20465;-84
2021/10/04 11:21:58;;;;;;;2.43;1.40;;;30.00;39.90;;;;;;4926198;28;20504;-82
2021/10/04 11:24:26;;;;;;;5.33;1.70;;;29.80;39.40;;;;;;4923226;28;20477;-83
2021/10/04 11:26:56;;;;;;;4.97;1.60;;;30.60;39.40;;;;;;4908038;28;20468;-84
2021/10/04 11:29:25;;;;;;;3.90;1.60;;;31.70;38.40;;;;;;4910134;28;20453;-84
2021/10/04 11:31:53;;;;;;;2.10;1.30;;;32.90;36.00;;;;;;4907236;28;20457;-84
2021/10/04 11:34:22;;;;;;;1.20;1.10;;;33.80;34.80;;;;;;4917648;28;20465;-84
2021/10/04 11:36:51;;;;;;;2.70;0.93;;;34.80;33.00;;;;;;4906311;28;20563;-83
2021/10/04 11:39:20;;;;;;;2.57;0.93;;;35.50;31.80;;;;;;4927774;28;20449;-83
2021/10/04 11:41:49;;;;;;;2.10;1.07;;;35.40;30.10;;;;;;4919648;28;20462;-83
2021/10/04 11:44:20;;;;;;;1.87;1.00;;;35.50;29.90;;;;;;4934185;28;20520;-85
2021/10/04 11:46:50;;;;;;;3.03;1.30;;;34.10;30.20;;;;;;4907559;28;20433;-83
2021/10/04 11:49:20;;;;;;;5.27;1.60;;;33.40;31.00;;;;;;4922282;28;20471;-84
2021/10/04 11:51:50;;;;;;;3.03;1.20;;;33.10;31.60;;;;;;4928984;28;20442;-84
2021/10/04 11:54:39;;;;;;;4.77;1.27;;;32.30;31.60;;;;;;4935504;28;20530;-81
2021/10/04 11:57:08;;;;;;;3.00;1.47;;;31.40;33.30;;;;;;4957603;28;20459;-81
2021/10/04 12:00:02;;;;;;;2.83;1.20;;;30.70;34.20;;;;;;4914044;28;20466;-83
2021/10/04 12:02:30;;;;;;;4.83;1.20;;;30.80;34.90;;;;;;4882825;29;20468;-80
2021/10/04 12:05:13;;;;;;;2.20;0.90;;;32.20;34.00;;;;;;4904355;28;20492;-80
2021/10/04 12:07:56;;;;;;;1.57;1.10;;;32.40;31.40;;;;;;4902319;28;20433;-81
2021/10/04 12:10:26;;;;;;;3.33;1.20;;;32.70;32.50;;;;;;4903403;28;20471;-80
2021/10/04 12:12:54;;;;;;;5.50;1.30;;;32.70;32.10;;;;;;4915042;28;20460;-82
2021/10/04 12:15:28;;;;;;;2.43;0.97;;;33.40;32.60;;;;;;4901162;29;20584;-81
2021/10/04 12:17:56;;;;;;;3.33;1.00;;;33.50;30.80;;;;;;4901608;28;20442;-81
2021/10/04 12:20:24;;;;;;;2.90;1.20;;;33.00;31.60;;;;;;4910493;28;20463;-81
2021/10/04 12:22:52;;;;;;;5.93;1.10;;;32.20;32.20;;;;;;4900398;29;20535;-79
2021/10/04 12:25:28;;;;;;;2.57;1.00;;;33.40;33.40;;;;;;4902952;28;20485;-82
2021/10/04 12:28:03;;;;;;;3.23;1.10;;;34.90;31.10;;;;;;4904021;28;20456;-83
2021/10/04 12:30:51;;;;;;;3.43;1.30;;;36.10;29.50;;;;;;4897135;29;20567;-86
2021/10/04 12:33:20;;;;;;;1.80;0.90;;;37.50;28.30;;;;;;4902521;29;20504;-82
2021/10/04 12:35:49;;;;;;;1.80;0.97;;;38.10;27.10;;;;;;4913271;28;20472;-83
2021/10/04 12:38:18;;;;;;;7.33;0.90;;;38.90;27.50;;;;;;4901119;28;20453;-83
2021/10/04 12:40:47;;;;;;;1.10;0.80;;;39.30;26.40;;;;;;4899269;29;20465;-81
2021/10/04 12:43:17;;;;;;;2.03;0.90;;;39.60;25.90;;;;;;4899976;28;20452;-83
2021/10/04 12:46:01;;;;;;;1.13;0.93;;;40.10;25.50;;;;;;4900305;29;20489;-86
2021/10/04 12:48:30;;;;;;;1.93;0.97;;;39.90;24.70;;;;;;4897840;29;20464;-83
2021/10/04 12:51:06;;;;;;;7.20;1.30;;;40.10;24.60;;;;;;4898899;28;20533;-86
2021/10/04 12:53:34;;;;;;;0.80;0.80;;;39.40;24.50;;;;;;4898034;29;20456;-85
2021/10/04 12:56:05;;;;;;;2.27;0.80;;;39.70;24.90;;;;;;4904554;29;20487;-86
2021/10/04 12:58:35;;;;;;;0.80;0.80;;;40.20;24.30;;;;;;4902745;29;20457;-85
2021/10/04 13:01:14;;;;;;;1.10;1.00;;;40.80;23.70;;;;;;4903903;29;20451;-83
2021/10/04 13:03:51;;;;;;;2.83;1.37;;;41.10;23.20;;;;;;4902978;29;20447;-87